createdAt,value
2022-12-17T00:02:35.847Z,88.05
2022-12-17T00:05:21.089Z,87.74
2022-12-17T00:08:06.593Z,88.06
2022-12-17T00:10:51.922Z,88.54
2022-12-17T00:13:39.428Z,87.29
2022-12-17T00:16:25.735Z,88.23
2022-12-17T00:19:12.846Z,88.07
2022-12-17T00:22:00.195Z,87.47
2022-12-17T00:24:45.280Z,88.16
2022-12-17T00:27:30.358Z,88.00
2022-12-17T00:30:15.773Z,87.96
2022-12-17T00:33:01.742Z,87.43
2022-12-17T00:35:48.048Z,87.72
2022-12-17T00:38:31.057Z,88.07
2022-12-17T00:41:16.145Z,87.57
2022-12-17T00:44:01.563Z,88.17
2022-12-17T00:46:47.197Z,88.20
2022-12-17T00:49:32.387Z,87.89
2022-12-17T00:52:19.123Z,87.86
2022-12-17T00:55:04.304Z,87.38
2022-12-17T00:57:49.583Z,87.61
2022-12-17T01:00:35.340Z,87.77
2022-12-17T01:03:26.205Z,87.92
2022-12-17T01:06:11.667Z,87.80
2022-12-17T01:08:58.232Z,87.79
2022-12-17T01:11:43.822Z,87.77
2022-12-17T01:14:29.183Z,87.77
2022-12-17T01:17:14.613Z,87.51
2022-12-17T01:19:59.913Z,87.15
2022-12-17T01:22:45.492Z,88.22
2022-12-17T01:25:31.970Z,87.27
2022-12-17T01:28:17.409Z,87.33
2022-12-17T01:31:13.925Z,87.58
2022-12-17T01:33:59.275Z,87.51
2022-12-17T01:36:44.832Z,87.16
2022-12-17T01:39:29.924Z,87.91
2022-12-17T01:42:16.407Z,87.75
2022-12-17T01:45:07.966Z,87.61
2022-12-17T01:47:57.618Z,87.71
2022-12-17T01:50:45.297Z,87.63
2022-12-17T01:53:30.861Z,87.46
2022-12-17T01:56:19.012Z,87.04
2022-12-17T01:59:06.195Z,87.65
2022-12-17T02:01:51.554Z,87.00
2022-12-17T02:04:37.072Z,87.47
2022-12-17T02:07:38.662Z,87.33
2022-12-17T02:10:35.132Z,87.54
2022-12-17T02:13:27.232Z,87.93
2022-12-17T02:16:20.292Z,87.23
2022-12-17T02:19:09.539Z,87.72
2022-12-17T02:21:57.665Z,87.37
2022-12-17T02:24:50.773Z,87.30
2022-12-17T02:27:38.160Z,87.50
2022-12-17T02:30:26.626Z,87.06
2022-12-17T02:33:13.334Z,87.58
2022-12-17T02:36:02.774Z,87.13
2022-12-17T02:38:49.980Z,87.98
2022-12-17T02:41:41.064Z,87.51
2022-12-17T02:44:29.440Z,87.00
2022-12-17T02:47:16.953Z,87.20
2022-12-17T02:50:02.555Z,87.52
2022-12-17T02:52:50.902Z,86.96
2022-12-17T02:55:35.940Z,87.46
2022-12-17T02:58:21.123Z,87.08
2022-12-17T03:01:22.603Z,87.75
2022-12-17T03:04:07.803Z,87.30
2022-12-17T03:06:52.874Z,86.95
2022-12-17T03:09:38.391Z,87.59
2022-12-17T03:12:23.840Z,87.59
2022-12-17T03:15:09.296Z,87.50
2022-12-17T03:17:55.938Z,87.38
2022-12-17T03:20:40.276Z,87.42
2022-12-17T03:23:29.304Z,87.27
2022-12-17T03:26:17.764Z,86.98
2022-12-17T03:29:03.080Z,87.50
2022-12-17T03:31:48.227Z,86.47
2022-12-17T03:34:34.703Z,86.54
2022-12-17T03:37:20.042Z,86.81
2022-12-17T03:40:04.544Z,87.10
2022-12-17T03:42:49.805Z,86.63
2022-12-17T03:45:35.609Z,87.26
2022-12-17T03:48:25.520Z,86.98
2022-12-17T03:51:13.044Z,87.35
2022-12-17T03:54:13.037Z,86.64
2022-12-17T03:56:58.496Z,86.18
2022-12-17T03:59:40.015Z,86.94
2022-12-17T04:02:25.545Z,87.01
2022-12-17T04:05:13.930Z,86.69
2022-12-17T04:08:04.833Z,86.88
2022-12-17T04:10:50.189Z,86.33
2022-12-17T04:13:40.407Z,87.23
2022-12-17T04:16:26.766Z,87.72
2022-12-17T04:19:12.234Z,87.16
2022-12-17T04:21:57.435Z,87.23
2022-12-17T04:24:43.915Z,87.30
2022-12-17T04:27:28.961Z,87.17
2022-12-17T04:30:14.254Z,86.99
2022-12-17T04:32:59.759Z,87.02
2022-12-17T04:35:45.149Z,86.85
2022-12-17T04:38:30.387Z,86.85
2022-12-17T04:41:16.963Z,87.36
2022-12-17T04:44:03.507Z,86.74
2022-12-17T04:46:55.382Z,86.90
2022-12-17T04:49:55.057Z,87.10
2022-12-17T04:52:40.170Z,86.70
2022-12-17T04:55:25.939Z,86.90
2022-12-17T04:58:12.323Z,86.60
2022-12-17T05:00:57.683Z,87.18
2022-12-17T05:03:42.826Z,86.28
2022-12-17T05:06:27.901Z,86.24
2022-12-17T05:09:13.412Z,86.54
2022-12-17T05:11:58.491Z,86.68
2022-12-17T05:14:45.074Z,86.52
2022-12-17T05:17:30.336Z,86.75
2022-12-17T05:20:15.709Z,87.24
2022-12-17T05:23:01.256Z,86.66
2022-12-17T05:25:46.619Z,86.91
2022-12-17T05:28:31.896Z,86.37
2022-12-17T05:31:18.992Z,86.73
2022-12-17T05:34:04.124Z,86.91
2022-12-17T05:36:49.729Z,86.34
2022-12-17T05:39:35.064Z,86.69
2022-12-17T05:42:20.503Z,86.28
2022-12-17T05:45:05.577Z,86.30
2022-12-17T05:47:51.946Z,86.76
2022-12-17T05:50:37.093Z,86.65
2022-12-17T05:53:22.658Z,86.63
2022-12-17T05:56:10.909Z,86.55
2022-12-17T05:58:59.020Z,86.62
2022-12-17T06:01:44.536Z,86.07
2022-12-17T06:04:31.035Z,87.05
2022-12-17T06:07:16.516Z,86.59
2022-12-17T06:10:01.928Z,86.98
2022-12-17T06:12:47.101Z,86.48
2022-12-17T06:15:33.007Z,86.99
2022-12-17T06:18:18.525Z,86.73
2022-12-17T06:21:05.677Z,86.31
2022-12-17T06:23:50.953Z,85.77
2022-12-17T06:26:37.652Z,86.37
2022-12-17T06:29:22.912Z,86.20
2022-12-17T06:32:08.271Z,86.04
2022-12-17T06:34:53.671Z,86.15
2022-12-17T06:37:42.241Z,86.62
2022-12-17T06:40:28.807Z,86.49
2022-12-17T06:43:15.229Z,86.41
2022-12-17T06:46:00.521Z,86.65
2022-12-17T06:48:48.971Z,85.75
2022-12-17T06:51:34.127Z,85.95
2022-12-17T06:54:20.729Z,86.12
2022-12-17T06:57:05.917Z,86.15
2022-12-17T06:59:51.624Z,85.75
2022-12-17T07:02:36.870Z,86.36
2022-12-17T07:05:25.874Z,86.00
2022-12-17T07:08:15.876Z,86.47
2022-12-17T07:11:02.654Z,85.74
2022-12-17T07:13:48.041Z,85.59
2022-12-17T07:16:33.404Z,85.13
2022-12-17T07:19:22.526Z,85.16
2022-12-17T07:22:10.853Z,85.36
2022-12-17T07:24:56.008Z,85.40
2022-12-17T07:27:42.780Z,85.57
2022-12-17T07:30:29.258Z,85.14
2022-12-17T07:33:18.623Z,85.08
2022-12-17T07:36:20.515Z,84.53
2022-12-17T07:39:05.756Z,84.94
2022-12-17T07:41:51.107Z,85.23
2022-12-17T07:44:37.750Z,85.46
2022-12-17T07:47:22.777Z,85.45
2022-12-17T07:50:08.241Z,84.82
2022-12-17T07:52:53.317Z,85.30
2022-12-17T07:55:38.650Z,85.25
2022-12-17T07:58:25.610Z,84.69
2022-12-17T08:01:11.927Z,85.10
2022-12-17T08:03:57.368Z,84.80
2022-12-17T08:06:42.394Z,84.53
2022-12-17T08:09:27.342Z,84.93
2022-12-17T08:12:12.687Z,84.75
2022-12-17T08:14:57.762Z,84.32
2022-12-17T08:17:44.723Z,84.31
2022-12-17T08:20:30.147Z,84.73
2022-12-17T08:23:20.354Z,85.00
2022-12-17T08:26:05.855Z,84.80
2022-12-17T08:28:51.407Z,84.73
2022-12-17T08:31:37.735Z,84.19
2022-12-17T08:34:24.526Z,83.85
2022-12-17T08:37:09.967Z,83.78
2022-12-17T08:39:55.261Z,84.19
2022-12-17T08:42:40.340Z,83.79
2022-12-17T08:45:26.618Z,84.15
2022-12-17T08:48:20.292Z,83.34
2022-12-17T08:51:06.701Z,83.56
2022-12-17T08:53:51.890Z,83.59
2022-12-17T08:56:37.032Z,83.86
2022-12-17T08:59:22.200Z,83.50
2022-12-17T09:02:07.759Z,82.40
2022-12-17T09:04:55.246Z,82.71
2022-12-17T09:07:41.986Z,82.65
2022-12-17T09:10:27.463Z,82.38
2022-12-17T09:13:12.930Z,83.42
2022-12-17T09:15:57.800Z,81.43
2022-12-17T09:18:43.018Z,82.40
2022-12-17T09:21:28.204Z,81.87
2022-12-17T09:24:14.577Z,81.01
2022-12-17T09:27:00.132Z,80.73
2022-12-17T09:29:45.341Z,79.97
2022-12-17T09:32:30.490Z,80.94
2022-12-17T09:35:15.866Z,81.00
2022-12-17T09:38:01.194Z,80.63
2022-12-17T09:40:48.896Z,79.97
2022-12-17T09:43:52.562Z,81.23
2022-12-17T09:46:45.253Z,82.82
2022-12-17T09:49:36.505Z,80.14
2022-12-17T09:52:33.757Z,80.60
2022-12-17T09:55:21.549Z,79.74
2022-12-17T09:58:09.009Z,79.94
2022-12-17T10:00:59.267Z,79.65
2022-12-17T10:03:48.415Z,80.49
2022-12-17T10:06:38.934Z,78.91
2022-12-17T10:09:31.265Z,76.75
2022-12-17T10:12:21.329Z,77.27
2022-12-17T10:15:07.944Z,81.21
2022-12-17T10:17:53.362Z,81.28
2022-12-17T10:20:43.677Z,82.20
2022-12-17T10:23:28.674Z,85.34
2022-12-17T10:26:15.048Z,82.87
2022-12-17T10:29:00.507Z,82.44
2022-12-17T10:31:57.057Z,82.79
2022-12-17T10:34:42.252Z,81.36
2022-12-17T10:37:37.612Z,81.57
2022-12-17T10:40:36.812Z,83.46
2022-12-17T10:43:22.842Z,81.74
2022-12-17T10:46:09.677Z,80.60
2022-12-17T10:48:56.588Z,80.47
2022-12-17T10:51:48.589Z,79.67
2022-12-17T10:54:56.228Z,79.67
2022-12-17T10:57:45.570Z,82.95
2022-12-17T11:00:47.320Z,82.53
2022-12-17T11:03:50.217Z,83.09
2022-12-17T11:06:42.863Z,81.65
2022-12-17T11:09:37.315Z,81.07
2022-12-17T11:12:30.566Z,81.28
2022-12-17T11:15:22.497Z,82.17
2022-12-17T11:18:11.597Z,81.72
2022-12-17T11:21:05.705Z,82.21
2022-12-17T11:23:54.969Z,82.70
2022-12-17T11:26:43.521Z,83.28
2022-12-17T11:29:31.529Z,84.98
2022-12-17T11:32:46.405Z,83.25
2022-12-17T11:35:43.649Z,81.72
2022-12-17T11:38:40.395Z,82.17
2022-12-17T11:41:34.480Z,82.66
2022-12-17T11:44:26.341Z,83.27
2022-12-17T11:47:23.782Z,82.37
2022-12-17T11:50:16.853Z,83.19
2022-12-17T11:53:08.739Z,82.54
2022-12-17T11:55:59.631Z,84.31
2022-12-17T11:58:53.785Z,83.85
2022-12-17T12:01:45.174Z,84.99
2022-12-17T12:04:44.726Z,85.15
2022-12-17T12:07:41.033Z,86.56
2022-12-17T12:10:48.306Z,85.71
2022-12-17T12:13:40.239Z,84.19
2022-12-17T12:16:38.096Z,82.89
2022-12-17T12:19:37.317Z,83.93
2022-12-17T12:22:30.938Z,84.35
2022-12-17T12:25:38.648Z,82.90
2022-12-17T12:28:32.375Z,84.13
2022-12-17T12:31:27.806Z,83.41
2022-12-17T12:34:27.533Z,84.32
2022-12-17T12:37:36.807Z,85.21
2022-12-17T12:40:39.915Z,83.62
2022-12-17T12:43:40.386Z,83.35
2022-12-17T12:47:12.931Z,84.82
2022-12-17T12:50:25.945Z,85.46
2022-12-17T12:53:35.768Z,83.81
2022-12-17T12:56:29.010Z,84.56
2022-12-17T12:59:17.586Z,84.15
2022-12-17T13:02:03.589Z,85.08
2022-12-17T13:05:10.398Z,83.55
2022-12-17T13:07:43.515Z,82.66
2022-12-17T13:10:30.020Z,81.62
2022-12-17T13:13:00.349Z,82.74
2022-12-17T13:15:36.844Z,82.30
2022-12-17T13:18:20.177Z,82.29
2022-12-17T13:20:59.503Z,83.98
2022-12-17T13:23:32.568Z,83.62
2022-12-17T13:26:23.643Z,83.96
2022-12-17T13:29:02.516Z,84.30
2022-12-17T13:31:41.478Z,84.84
2022-12-17T13:34:17.864Z,84.48
2022-12-17T13:36:55.119Z,84.04
2022-12-17T13:39:35.492Z,84.72
2022-12-17T13:42:04.019Z,83.37
2022-12-17T13:44:39.939Z,84.98
2022-12-17T13:47:22.995Z,83.60
2022-12-17T13:50:31.469Z,84.00
2022-12-17T13:52:42.249Z,86.82
2022-12-17T13:55:22.086Z,85.87
2022-12-17T13:57:51.515Z,84.71
2022-12-17T14:00:25.632Z,85.75
2022-12-17T14:02:54.322Z,84.36
2022-12-17T14:05:30.451Z,85.08
2022-12-17T14:08:01.199Z,84.17
2022-12-17T14:10:30.901Z,83.45
2022-12-17T14:13:06.112Z,85.38
2022-12-17T14:15:34.228Z,84.19
2022-12-17T14:18:03.443Z,84.44
2022-12-17T14:20:33.394Z,84.44
2022-12-17T14:23:03.867Z,85.17
2022-12-17T14:25:37.884Z,84.46
2022-12-17T14:28:08.237Z,84.09
2022-12-17T14:30:46.243Z,82.51
2022-12-17T14:33:30.736Z,83.76
2022-12-17T14:36:01.644Z,83.09
2022-12-17T14:38:38.743Z,81.37
2022-12-17T14:41:26.743Z,84.69
2022-12-17T14:43:59.617Z,83.01
2022-12-17T14:46:27.929Z,84.23
2022-12-17T14:49:03.735Z,85.35
2022-12-17T14:51:34.678Z,86.87
2022-12-17T14:54:19.487Z,86.09
2022-12-17T14:56:50.515Z,86.20
2022-12-17T14:59:25.761Z,86.71
2022-12-17T15:02:00.428Z,87.79
2022-12-17T15:04:29.400Z,85.22
2022-12-17T15:06:57.150Z,86.27
2022-12-17T15:09:25.476Z,84.55
2022-12-17T15:11:54.754Z,84.88
2022-12-17T15:14:22.826Z,84.74
2022-12-17T15:16:50.484Z,83.95
2022-12-17T15:19:18.116Z,83.51
2022-12-17T15:21:45.816Z,84.75
2022-12-17T15:24:16.840Z,83.95
2022-12-17T15:26:44.463Z,83.40
2022-12-17T15:29:13.697Z,84.17
2022-12-17T15:31:41.517Z,83.31
2022-12-17T15:34:12.008Z,84.05
2022-12-17T15:36:39.902Z,84.72
2022-12-17T15:39:08.606Z,85.13
2022-12-17T15:41:53.516Z,85.16
2022-12-17T15:44:22.518Z,83.15
2022-12-17T15:46:50.116Z,83.61
2022-12-17T15:49:17.762Z,85.46
2022-12-17T15:51:45.322Z,85.64
2022-12-17T15:54:12.921Z,86.55
2022-12-17T15:56:40.672Z,85.44
2022-12-17T15:59:10.417Z,88.21
2022-12-17T16:01:39.535Z,85.58
2022-12-17T16:04:13.819Z,85.94
2022-12-17T16:06:44.617Z,85.47
2022-12-17T16:09:12.373Z,85.91
2022-12-17T16:11:40.305Z,88.19
2022-12-17T16:14:07.962Z,86.42
2022-12-17T16:16:35.623Z,85.70
2022-12-17T16:19:05.396Z,86.06
2022-12-17T16:21:33.057Z,86.82
2022-12-17T16:24:00.638Z,86.88
2022-12-17T16:26:28.862Z,87.17
2022-12-17T16:28:58.614Z,87.65
2022-12-17T16:31:26.920Z,87.33
2022-12-17T16:33:54.718Z,87.71
2022-12-17T16:36:24.557Z,87.93
2022-12-17T16:38:54.068Z,87.83
2022-12-17T16:41:23.060Z,89.09
2022-12-17T16:43:51.382Z,88.60
2022-12-17T16:46:26.419Z,89.42
2022-12-17T16:48:55.155Z,87.56
2022-12-17T16:51:29.323Z,89.98
2022-12-17T16:53:57.766Z,89.78
2022-12-17T16:56:28.353Z,87.21
2022-12-17T16:58:56.892Z,88.00
2022-12-17T17:01:26.936Z,88.97
2022-12-17T17:03:55.346Z,87.06
2022-12-17T17:06:28.944Z,85.82
2022-12-17T17:08:59.769Z,85.46
2022-12-17T17:11:27.445Z,87.27
2022-12-17T17:13:55.795Z,87.57
2022-12-17T17:16:25.268Z,86.53
2022-12-17T17:18:53.678Z,86.67
2022-12-17T17:21:28.692Z,85.92
2022-12-17T17:23:59.750Z,86.07
2022-12-17T17:26:28.521Z,86.41
2022-12-17T17:28:56.403Z,88.12
2022-12-17T17:31:46.479Z,90.09
2022-12-17T17:34:14.227Z,88.94
2022-12-17T17:36:43.878Z,89.62
2022-12-17T17:39:13.999Z,89.29
2022-12-17T17:41:41.766Z,89.60
2022-12-17T17:44:12.314Z,88.09
2022-12-17T17:46:41.226Z,87.76
2022-12-17T17:49:10.583Z,86.31
2022-12-17T17:54:30.164Z,88.68
2022-12-17T17:56:57.810Z,88.79
2022-12-17T17:59:32.866Z,89.63
2022-12-17T18:02:01.833Z,90.31
2022-12-17T18:04:30.948Z,88.58
2022-12-17T18:09:47.795Z,89.26
2022-12-17T18:12:33.206Z,89.08
2022-12-17T18:15:18.178Z,89.32
2022-12-17T18:17:48.073Z,90.72
2022-12-17T18:20:16.820Z,89.42
2022-12-17T18:22:46.736Z,89.45
2022-12-17T18:25:16.824Z,91.28
2022-12-17T18:27:44.838Z,90.12
2022-12-17T18:30:13.144Z,91.82
2022-12-17T18:32:40.877Z,89.07
2022-12-17T18:35:09.533Z,92.67
2022-12-17T18:37:37.544Z,90.07
2022-12-17T18:40:05.764Z,89.57
2022-12-17T18:42:52.304Z,88.52
2022-12-17T18:45:20.015Z,87.10
2022-12-17T18:47:47.888Z,87.57
2022-12-17T18:50:15.599Z,87.81
2022-12-17T18:52:43.473Z,86.64
2022-12-17T18:55:11.343Z,89.65
2022-12-17T18:57:40.382Z,90.34
2022-12-17T19:00:09.290Z,89.37
2022-12-17T19:02:37.085Z,91.02
2022-12-17T19:05:05.474Z,87.67
2022-12-17T19:07:33.198Z,86.55
2022-12-17T19:10:00.863Z,87.17
2022-12-17T19:12:28.473Z,88.19
2022-12-17T19:14:57.560Z,90.13
2022-12-17T19:17:26.387Z,90.71
2022-12-17T19:19:54.392Z,88.79
2022-12-17T19:22:26.756Z,88.95
2022-12-17T19:24:55.234Z,87.17
2022-12-17T19:27:22.980Z,87.48
2022-12-17T19:29:55.210Z,89.23
2022-12-17T19:32:25.001Z,88.45
2022-12-17T19:34:52.840Z,86.87
2022-12-17T19:37:20.609Z,88.56
2022-12-17T19:39:48.796Z,89.25
2022-12-17T19:42:25.562Z,90.45
2022-12-17T19:44:54.328Z,89.16
2022-12-17T19:47:30.663Z,87.58
2022-12-17T19:50:00.430Z,88.85
2022-12-17T19:52:28.805Z,88.75
2022-12-17T19:54:57.310Z,86.47
2022-12-17T19:57:25.211Z,86.44
2022-12-17T19:59:53.143Z,86.60
2022-12-17T20:02:21.186Z,87.55
2022-12-17T20:04:54.147Z,86.28
2022-12-17T20:07:31.614Z,85.03
2022-12-17T20:10:00.307Z,85.44
2022-12-17T20:12:28.883Z,86.00
2022-12-17T20:15:23.774Z,88.45
2022-12-17T20:17:52.680Z,87.02
2022-12-17T20:20:29.566Z,87.08
2022-12-17T20:23:02.065Z,86.54
2022-12-17T20:25:43.925Z,85.37
2022-12-17T20:28:12.638Z,85.25
2022-12-17T20:30:45.879Z,85.64
2022-12-17T20:33:14.422Z,86.74
2022-12-17T20:35:44.108Z,86.69
2022-12-17T20:38:12.325Z,86.17
2022-12-17T20:40:41.517Z,86.81
2022-12-17T20:43:22.881Z,86.26
2022-12-17T20:45:51.623Z,86.37
2022-12-17T20:48:19.858Z,86.22
2022-12-17T20:50:49.986Z,85.99
2022-12-17T20:53:27.558Z,87.00
2022-12-17T20:56:06.110Z,85.40
2022-12-17T20:58:35.024Z,86.11
2022-12-17T21:01:05.238Z,85.00
2022-12-17T21:03:33.776Z,85.11
2022-12-17T21:06:11.699Z,89.37
2022-12-17T21:08:47.723Z,89.34
2022-12-17T21:11:18.525Z,87.68
2022-12-17T21:13:47.565Z,87.94
2022-12-17T21:16:17.967Z,86.22
2022-12-17T21:18:54.614Z,86.10
2022-12-17T21:21:28.764Z,83.71
2022-12-17T21:23:59.543Z,85.92
2022-12-17T21:26:31.047Z,86.76
2022-12-17T21:29:03.664Z,86.89
2022-12-17T21:31:36.602Z,84.60
2022-12-17T21:34:08.820Z,84.73
2022-12-17T21:36:40.218Z,84.24
2022-12-17T21:39:09.890Z,87.00
2022-12-17T21:41:46.895Z,86.79
2022-12-17T21:44:18.573Z,86.49
2022-12-17T21:46:50.345Z,88.40
2022-12-17T21:49:21.627Z,86.56
2022-12-17T21:51:50.912Z,85.79
2022-12-17T21:54:19.988Z,84.78
2022-12-17T21:56:48.331Z,84.50
2022-12-17T21:59:16.040Z,85.58
2022-12-17T22:01:44.139Z,85.39
2022-12-17T22:04:12.205Z,87.01
2022-12-17T22:06:44.765Z,86.32
2022-12-17T22:09:51.946Z,86.47
2022-12-17T22:12:27.261Z,87.51
2022-12-17T22:14:54.968Z,88.54
2022-12-17T22:17:23.098Z,89.48
2022-12-17T22:19:50.957Z,88.06
2022-12-17T22:22:18.675Z,87.25
2022-12-17T22:24:47.711Z,86.69
2022-12-17T22:27:15.513Z,87.39
2022-12-17T22:30:00.674Z,86.72
2022-12-17T22:32:45.973Z,86.76
2022-12-17T22:36:20.660Z,87.56
2022-12-17T22:39:16.324Z,87.37
2022-12-17T22:44:31.456Z,87.47
2022-12-17T22:44:44.171Z,86.17
2022-12-17T22:46:26.476Z,85.77
2022-12-17T22:48:54.102Z,86.30
2022-12-17T22:51:29.808Z,84.99
2022-12-17T22:54:09.825Z,85.29
2022-12-17T22:57:22.153Z,85.62
2022-12-17T22:59:28.993Z,85.24
2022-12-17T23:01:56.677Z,85.95
2022-12-17T23:04:24.568Z,85.88
2022-12-17T23:06:52.372Z,85.74
2022-12-17T23:09:20.787Z,86.50
2022-12-17T23:11:50.262Z,87.25
2022-12-17T23:14:19.065Z,87.22
2022-12-17T23:16:47.025Z,87.36
2022-12-17T23:19:14.804Z,87.96
2022-12-17T23:21:42.473Z,86.91
2022-12-17T23:24:10.483Z,87.68
2022-12-17T23:26:39.855Z,88.49
2022-12-17T23:29:19.130Z,87.87
2022-12-17T23:31:47.567Z,87.96
2022-12-17T23:34:15.439Z,87.07
2022-12-17T23:36:43.358Z,87.32
2022-12-17T23:39:11.139Z,87.56
2022-12-17T23:41:38.826Z,87.31
2022-12-17T23:44:07.852Z,86.38
2022-12-17T23:46:35.534Z,86.58
2022-12-17T23:49:05.531Z,85.45
2022-12-17T23:51:34.073Z,85.66
2022-12-17T23:54:01.727Z,85.25
2022-12-17T23:56:29.376Z,85.87
2022-12-17T23:58:58.979Z,85.24
